createdAt,value
2022-08-05T00:02:41.526Z,0.00
2022-08-05T00:08:00.985Z,0.00
2022-08-05T00:12:56.150Z,0.00
2022-08-05T00:17:41.386Z,0.00
2022-08-05T00:22:40.250Z,0.00
2022-08-05T00:27:42.889Z,0.00
2022-08-05T00:32:40.446Z,0.00
2022-08-05T00:37:52.861Z,0.00
2022-08-05T00:42:41.087Z,0.00
2022-08-05T00:47:56.870Z,0.00
2022-08-05T00:52:40.983Z,0.00
2022-08-05T00:57:58.388Z,0.00
2022-08-05T01:02:40.913Z,0.00
2022-08-05T01:08:40.929Z,0.00
2022-08-05T01:12:40.761Z,0.00
2022-08-05T01:17:44.200Z,0.00
2022-08-05T01:22:39.690Z,0.00
2022-08-05T01:27:50.710Z,0.00
2022-08-05T01:32:40.461Z,0.00
2022-08-05T01:37:44.187Z,0.00
2022-08-05T01:42:39.345Z,0.00
2022-08-05T01:47:43.110Z,0.00
2022-08-05T01:52:39.252Z,0.00
2022-08-05T01:58:10.896Z,0.00
2022-08-05T02:02:51.088Z,0.00
2022-08-05T02:07:40.081Z,0.00
2022-08-05T02:12:39.019Z,0.00
2022-08-05T02:18:30.855Z,0.00
2022-08-05T02:22:39.927Z,0.00
2022-08-05T02:27:59.204Z,0.00
2022-08-05T02:32:39.801Z,0.00
2022-08-05T02:37:38.902Z,0.00
2022-08-05T02:42:38.705Z,0.00
2022-08-05T02:48:07.683Z,0.00
2022-08-05T02:52:39.585Z,0.00
2022-08-05T02:58:11.667Z,0.00
2022-08-05T03:02:39.470Z,0.00
2022-08-05T03:07:59.322Z,0.00
2022-08-05T03:12:39.352Z,0.00
2022-08-05T03:17:41.678Z,0.00
2022-08-05T03:22:38.279Z,0.00
2022-08-05T03:27:59.026Z,0.00
2022-08-05T03:32:39.192Z,0.00
2022-08-05T03:37:46.683Z,0.00
2022-08-05T03:42:51.570Z,0.00
2022-08-05T03:47:41.418Z,0.00
2022-08-05T03:55:00.117Z,0.00
2022-08-05T03:57:42.056Z,0.00
2022-08-05T04:02:45.265Z,0.00
2022-08-05T04:07:53.187Z,5.62
2022-08-05T04:13:11.060Z,16.88
2022-08-05T04:18:20.608Z,11.25
2022-08-05T04:23:12.453Z,22.50
2022-08-05T04:28:11.253Z,33.75
2022-08-05T04:33:10.850Z,39.38
2022-08-05T04:38:10.934Z,56.25
2022-08-05T04:43:16.317Z,50.62
2022-08-05T04:48:18.647Z,78.75
2022-08-05T04:53:11.725Z,73.12
2022-08-05T04:58:12.311Z,45.00
2022-08-05T05:03:10.580Z,73.12
2022-08-05T05:08:14.489Z,39.38
2022-08-05T05:13:11.566Z,50.62
2022-08-05T05:18:10.508Z,106.88
2022-08-05T05:23:19.695Z,101.25
2022-08-05T05:28:11.257Z,78.75
2022-08-05T05:33:17.095Z,123.75
2022-08-05T05:38:13.687Z,106.88
2022-08-05T05:43:10.202Z,135.00
2022-08-05T05:48:10.100Z,84.38
2022-08-05T05:53:21.202Z,168.75
2022-08-05T05:58:11.015Z,253.12
2022-08-05T06:03:28.367Z,191.25
2022-08-05T06:08:11.024Z,264.38
2022-08-05T06:13:09.938Z,135.00
2022-08-05T06:18:09.830Z,191.25
2022-08-05T06:23:09.650Z,292.50
2022-08-05T06:28:12.041Z,151.88
2022-08-05T06:33:10.754Z,168.75
2022-08-05T06:38:11.266Z,168.75
2022-08-05T06:43:58.457Z,106.88
2022-08-05T06:48:35.940Z,84.38
2022-08-05T06:53:19.483Z,101.25
2022-08-05T06:58:20.086Z,90.00
2022-08-05T07:03:11.238Z,95.62
2022-08-05T07:08:10.923Z,61.88
2022-08-05T07:13:09.230Z,56.25
2022-08-05T07:18:11.549Z,123.75
2022-08-05T07:23:10.086Z,118.12
2022-08-05T07:28:11.988Z,101.25
2022-08-05T07:33:15.559Z,118.12
2022-08-05T07:38:12.211Z,191.25
2022-08-05T07:43:20.345Z,196.88
2022-08-05T07:48:09.755Z,202.50
2022-08-05T07:53:08.647Z,180.00
2022-08-05T07:58:09.072Z,174.38
2022-08-05T08:03:15.293Z,241.88
2022-08-05T08:08:12.488Z,236.25
2022-08-05T08:13:08.451Z,241.88
2022-08-05T08:18:14.263Z,337.50
2022-08-05T08:24:00.367Z,275.62
2022-08-05T08:28:18.447Z,236.25
2022-08-05T08:33:09.338Z,208.12
2022-08-05T08:38:08.236Z,191.25
2022-08-05T08:45:17.036Z,320.62
2022-08-05T08:48:22.533Z,466.88
2022-08-05T08:53:12.364Z,540.00
2022-08-05T08:58:08.705Z,371.25
2022-08-05T09:03:07.985Z,444.38
2022-08-05T09:08:07.884Z,590.62
2022-08-05T09:13:08.110Z,714.38
2022-08-05T09:18:08.679Z,523.12
2022-08-05T09:23:09.474Z,686.25
2022-08-05T09:28:07.626Z,680.62
2022-08-05T09:33:07.598Z,725.62
2022-08-05T09:38:29.526Z,781.88
2022-08-05T09:43:08.521Z,585.00
2022-08-05T09:48:07.379Z,652.50
2022-08-05T09:53:08.798Z,348.75
2022-08-05T09:58:07.287Z,365.62
2022-08-05T10:03:07.267Z,309.38
2022-08-05T10:08:34.839Z,371.25
2022-08-05T10:13:09.745Z,489.38
2022-08-05T10:18:07.170Z,691.88
2022-08-05T10:23:08.957Z,1051.88
2022-08-05T10:28:13.551Z,1406.25
2022-08-05T10:33:09.384Z,1248.75
2022-08-05T10:38:08.258Z,1046.25
2022-08-05T10:43:06.870Z,1389.38
2022-08-05T10:48:31.924Z,1327.50
2022-08-05T10:53:07.736Z,1980.00
2022-08-05T10:58:06.693Z,1485.00
2022-08-05T11:03:24.418Z,1805.62
2022-08-05T11:08:27.671Z,1906.88
2022-08-05T11:13:07.599Z,2210.62
2022-08-05T11:18:06.481Z,1417.50
2022-08-05T11:23:10.426Z,3571.88
2022-08-05T11:28:06.314Z,2480.62
2022-08-05T11:33:06.615Z,2705.62
2022-08-05T11:38:30.134Z,2722.50
2022-08-05T11:43:07.254Z,2188.12
2022-08-05T11:48:15.053Z,3003.75
2022-08-05T11:53:06.429Z,1338.75
2022-08-05T11:58:09.998Z,2098.12
2022-08-05T12:03:07.068Z,1653.75
2022-08-05T12:08:09.629Z,1186.88
2022-08-05T12:13:16.711Z,2536.88
2022-08-05T12:18:11.941Z,1215.00
2022-08-05T12:23:06.888Z,2705.62
2022-08-05T12:28:06.989Z,2030.62
2022-08-05T12:33:07.196Z,1417.50
2022-08-05T12:38:06.640Z,849.38
2022-08-05T12:43:05.629Z,2103.75
2022-08-05T12:48:27.441Z,2227.50
2022-08-05T12:53:06.599Z,1738.12
2022-08-05T12:58:49.782Z,1440.00
2022-08-05T13:03:06.813Z,2480.62
2022-08-05T13:08:05.496Z,1141.88
2022-08-05T13:13:05.348Z,1051.88
2022-08-05T13:18:05.290Z,1215.00
2022-08-05T13:23:07.252Z,1220.62
2022-08-05T13:28:06.050Z,1513.12
2022-08-05T13:33:05.139Z,984.38
2022-08-05T13:38:05.948Z,579.38
2022-08-05T13:43:05.092Z,1074.38
2022-08-05T13:48:08.497Z,1012.50
2022-08-05T13:53:08.874Z,978.75
2022-08-05T13:58:05.777Z,652.50
2022-08-05T14:03:06.711Z,472.50
2022-08-05T14:08:11.278Z,646.88
2022-08-05T14:13:05.757Z,528.75
2022-08-05T14:18:04.748Z,675.00
2022-08-05T14:23:04.880Z,393.75
2022-08-05T14:28:06.235Z,433.12
2022-08-05T14:33:04.579Z,618.75
2022-08-05T14:38:04.553Z,1355.62
2022-08-05T14:43:04.370Z,1383.75
2022-08-05T14:48:06.067Z,1327.50
2022-08-05T14:53:05.626Z,1535.62
2022-08-05T14:58:10.827Z,1305.00
2022-08-05T15:03:07.183Z,1231.88
2022-08-05T15:08:17.850Z,1321.88
2022-08-05T15:13:05.207Z,1164.38
2022-08-05T15:18:05.815Z,838.12
2022-08-05T15:23:04.969Z,714.38
2022-08-05T15:28:03.879Z,1068.75
2022-08-05T15:33:03.820Z,1906.88
2022-08-05T15:38:32.299Z,2553.75
2022-08-05T15:43:11.188Z,2790.00
2022-08-05T15:48:04.564Z,883.12
2022-08-05T15:53:05.338Z,523.12
2022-08-05T15:58:03.652Z,646.88
2022-08-05T16:03:03.510Z,821.25
2022-08-05T16:08:03.388Z,736.88
2022-08-05T16:13:03.307Z,736.88
2022-08-05T16:18:04.364Z,556.88
2022-08-05T16:23:04.213Z,540.00
2022-08-05T16:28:05.469Z,686.25
2022-08-05T16:33:03.087Z,607.50
2022-08-05T16:38:24.298Z,506.25
2022-08-05T16:43:04.016Z,568.12
2022-08-05T16:48:03.239Z,573.75
2022-08-05T16:53:12.454Z,680.62
2022-08-05T16:58:08.553Z,641.25
2022-08-05T17:03:03.812Z,455.62
2022-08-05T17:08:03.743Z,337.50
2022-08-05T17:13:02.741Z,292.50
2022-08-05T17:18:02.703Z,286.88
2022-08-05T17:23:02.796Z,264.38
2022-08-05T17:28:02.499Z,264.38
2022-08-05T17:33:02.446Z,270.00
2022-08-05T17:38:04.844Z,286.88
2022-08-05T17:43:02.323Z,309.38
2022-08-05T17:48:03.329Z,315.00
2022-08-05T17:53:02.272Z,315.00
2022-08-05T17:58:02.237Z,270.00
2022-08-05T18:03:02.219Z,219.38
2022-08-05T18:08:02.196Z,208.12
2022-08-05T18:13:07.631Z,163.12
2022-08-05T18:18:07.807Z,140.62
2022-08-05T18:23:09.444Z,163.12
2022-08-05T18:28:05.402Z,168.75
2022-08-05T18:33:02.922Z,168.75
2022-08-05T18:38:01.859Z,129.38
2022-08-05T18:43:01.850Z,84.38
2022-08-05T18:48:01.758Z,67.50
2022-08-05T18:53:02.727Z,50.62
2022-08-05T18:58:04.729Z,39.38
2022-08-05T19:03:03.610Z,33.75
2022-08-05T19:08:03.600Z,22.50
2022-08-05T19:13:02.350Z,16.88
2022-08-05T19:18:10.023Z,5.62
2022-08-05T19:23:02.362Z,5.62
2022-08-05T19:28:02.253Z,0.00
2022-08-05T19:33:01.493Z,0.00
2022-08-05T19:38:06.906Z,0.00
2022-08-05T19:43:05.287Z,0.00
2022-08-05T19:48:02.039Z,0.00
2022-08-05T19:53:09.261Z,0.00
2022-08-05T19:58:19.658Z,0.00
2022-08-05T20:03:01.820Z,0.00
2022-08-05T20:08:01.894Z,0.00
2022-08-05T20:13:00.773Z,0.00
2022-08-05T20:18:01.794Z,0.00
2022-08-05T20:23:00.757Z,0.00
2022-08-05T20:28:00.700Z,0.00
2022-08-05T20:33:00.660Z,0.00
2022-08-05T20:38:07.828Z,0.00
2022-08-05T20:43:01.446Z,0.00
2022-08-05T20:48:00.380Z,0.00
2022-08-05T20:53:00.290Z,0.00
2022-08-05T20:58:00.426Z,0.00
2022-08-05T21:03:01.493Z,0.00
2022-08-05T21:08:00.193Z,0.00
2022-08-05T21:13:10.132Z,0.00
2022-08-05T21:18:01.020Z,0.00
2022-08-05T21:22:59.941Z,0.00
2022-08-05T21:27:59.953Z,0.00
2022-08-05T21:32:59.864Z,0.00
2022-08-05T21:37:59.876Z,0.00
2022-08-05T21:42:59.754Z,0.00
2022-08-05T21:47:59.704Z,0.00
2022-08-05T21:53:04.846Z,0.00
2022-08-05T21:58:00.610Z,0.00
2022-08-05T22:02:59.624Z,0.00
2022-08-05T22:08:02.457Z,0.00
2022-08-05T22:14:06.227Z,0.00
2022-08-05T22:19:15.101Z,0.00
2022-08-05T22:24:12.994Z,0.00
2022-08-05T22:29:10.727Z,0.00
2022-08-05T22:34:10.580Z,0.00
2022-08-05T22:39:11.532Z,0.00
2022-08-05T22:44:12.079Z,0.00
2022-08-05T22:49:12.362Z,0.00
2022-08-05T22:54:11.328Z,0.00
2022-08-05T22:59:45.131Z,0.00
2022-08-05T23:04:11.220Z,0.00
2022-08-05T23:09:24.678Z,0.00
2022-08-05T23:14:11.143Z,0.00
2022-08-05T23:19:10.078Z,0.00
2022-08-05T23:24:11.606Z,0.00
2022-08-05T23:29:10.010Z,0.00
2022-08-05T23:34:10.880Z,0.00
2022-08-05T23:39:09.897Z,0.00
2022-08-05T23:44:10.792Z,0.00
2022-08-05T23:49:16.832Z,0.00
2022-08-05T23:54:12.684Z,0.00
2022-08-05T23:59:09.582Z,0.00
